Time;durP1;ratioP1;P1;durP2;ratioP2;P2;SDS_P1;SDS_P2;PMS_P1;PMS_P2;Temp;Humidity;BMP_temperature;BMP_pressure;BME280_temperature;BME280_humidity;BME280_pressure;Samples;Min_cycle;Max_cycle;Signal;HPM_P1;HPM_P2
2022/06/23 00:01:55;;;;;;;12.90;8.18;;;23.60;99.90;;;;;;4994945;28;20050;-78
2022/06/23 00:04:25;;;;;;;10.27;8.05;;;23.60;99.90;;;;;;4977703;28;20023;-78
2022/06/23 00:07:04;;;;;;;12.57;8.15;;;23.60;99.90;;;;;;4995442;28;20108;-78
2022/06/23 00:09:45;;;;;;;15.00;9.07;;;23.60;99.90;;;;;;4977462;28;20196;-78
2022/06/23 00:12:28;;;;;;;9.23;8.27;;;23.60;99.90;;;;;;4975197;28;20088;-78
2022/06/23 00:14:54;;;;;;;14.13;7.70;;;23.50;99.90;;;;;;4975083;28;20115;-77
2022/06/23 00:17:24;;;;;;;12.00;7.80;;;23.40;99.90;;;;;;4974964;28;20113;-77
2022/06/23 00:19:51;;;;;;;8.90;7.90;;;23.50;99.90;;;;;;4974919;28;20183;-78
2022/06/23 00:22:20;;;;;;;11.90;7.85;;;23.50;99.90;;;;;;4974882;28;20039;-77
2022/06/23 00:24:53;;;;;;;12.52;8.57;;;23.50;99.90;;;;;;4974830;28;20069;-77
2022/06/23 00:27:20;;;;;;;14.63;8.27;;;23.50;99.90;;;;;;4974861;28;20015;-78
2022/06/23 00:29:47;;;;;;;12.75;8.38;;;23.40;99.90;;;;;;4974995;28;20023;-77
2022/06/23 00:32:14;;;;;;;9.50;7.18;;;23.40;99.90;;;;;;4974798;28;20026;-77
2022/06/23 00:34:43;;;;;;;10.35;8.48;;;23.30;99.90;;;;;;4974533;28;20031;-78
2022/06/23 00:37:17;;;;;;;10.63;7.93;;;23.30;99.90;;;;;;4983674;28;20052;-78
2022/06/23 00:39:50;;;;;;;10.70;8.00;;;23.40;99.90;;;;;;5015332;28;20511;-78
2022/06/23 00:42:42;;;;;;;7.90;7.10;;;23.40;99.90;;;;;;5015152;28;20026;-78
2022/06/23 00:45:11;;;;;;;16.70;7.50;;;23.40;99.90;;;;;;5001029;28;20519;-77
2022/06/23 00:47:59;;;;;;;8.73;7.53;;;23.40;99.90;;;;;;5015228;28;20021;-78
2022/06/23 00:50:47;;;;;;;10.00;7.45;;;23.40;99.90;;;;;;5015070;28;20021;-78
2022/06/23 00:53:13;;;;;;;8.57;7.68;;;23.40;99.90;;;;;;5015224;28;20030;-78
2022/06/23 00:55:48;;;;;;;12.82;7.45;;;23.40;99.90;;;;;;5014958;28;20045;-78
2022/06/23 00:58:26;;;;;;;10.30;6.30;;;23.40;99.90;;;;;;5015114;28;20067;-78
2022/06/23 01:00:56;;;;;;;10.80;8.15;;;23.40;99.90;;;;;;4997536;28;20036;-78
2022/06/23 01:03:31;;;;;;;11.85;7.10;;;23.40;99.90;;;;;;5014997;28;20655;-77
2022/06/23 01:06:14;;;;;;;13.68;7.32;;;23.40;99.90;;;;;;5015160;28;20108;-77
2022/06/23 01:08:53;;;;;;;14.75;7.50;;;23.40;99.90;;;;;;5015000;28;20586;-78
2022/06/23 01:11:25;;;;;;;12.93;7.35;;;23.40;99.90;;;;;;5014992;28;20121;-78
2022/06/23 01:13:50;;;;;;;11.73;7.35;;;23.30;99.90;;;;;;5013665;28;20026;-78
2022/06/23 01:16:22;;;;;;;17.02;7.07;;;23.40;99.90;;;;;;5013433;28;20041;-78
2022/06/23 01:18:54;;;;;;;9.07;6.70;;;23.30;99.90;;;;;;5013355;28;20032;-78
2022/06/23 01:21:23;;;;;;;;;;;23.30;99.90;;;;;;5013829;28;20037;-78
2022/06/23 01:24:22;;;;;;;10.30;6.28;;;23.40;99.90;;;;;;5012984;28;20271;-77
2022/06/23 01:26:59;;;;;;;10.93;6.57;;;23.30;99.90;;;;;;5012797;28;20106;-78
2022/06/23 01:29:48;;;;;;;9.73;7.47;;;23.30;99.90;;;;;;5013008;28;20030;-78
2022/06/23 01:32:24;;;;;;;9.85;6.32;;;23.20;99.90;;;;;;5012876;28;20022;-77
2022/06/23 01:34:52;;;;;;;7.90;6.05;;;23.20;99.90;;;;;;5012664;28;20034;-77
2022/06/23 01:37:38;;;;;;;11.45;6.57;;;23.20;99.90;;;;;;5012747;28;20022;-77
2022/06/23 01:40:33;;;;;;;14.80;7.30;;;23.10;99.90;;;;;;5012584;28;20037;-77
2022/06/23 01:43:14;;;;;;;11.23;6.65;;;23.20;99.90;;;;;;5010670;28;20104;-78
2022/06/23 01:45:45;;;;;;;14.98;7.72;;;23.20;99.90;;;;;;5012288;28;20037;-78
2022/06/23 01:48:51;;;;;;;12.50;6.95;;;23.20;99.90;;;;;;5012429;28;20053;-78
2022/06/23 01:51:35;;;;;;;11.48;6.82;;;23.20;99.90;;;;;;5012249;28;20052;-78
2022/06/23 01:54:22;;;;;;;10.48;6.78;;;23.20;99.90;;;;;;5012335;28;20037;-78
2022/06/23 01:57:07;;;;;;;10.55;7.18;;;23.10;99.90;;;;;;5012169;28;20075;-77
2022/06/23 01:59:40;;;;;;;12.25;7.18;;;23.00;99.90;;;;;;5012165;28;20127;-78
2022/06/23 02:02:19;;;;;;;14.43;7.20;;;23.10;99.90;;;;;;4998416;28;20031;-78
2022/06/23 02:04:57;;;;;;;9.40;6.68;;;23.10;99.90;;;;;;4992459;28;20480;-78
2022/06/23 02:07:40;;;;;;;13.00;7.22;;;23.10;99.90;;;;;;4992560;28;20032;-77
2022/06/23 02:10:12;;;;;;;11.88;7.47;;;23.10;99.90;;;;;;4992500;28;20058;-78
2022/06/23 02:12:47;;;;;;;10.20;7.05;;;23.20;99.90;;;;;;4992393;28;20022;-78
2022/06/23 02:15:20;;;;;;;8.95;6.60;;;23.10;99.90;;;;;;4991945;28;20391;-78
2022/06/23 02:17:50;;;;;;;11.90;6.57;;;23.10;99.90;;;;;;4992387;28;20058;-77
2022/06/23 02:20:56;;;;;;;13.88;7.20;;;23.00;99.90;;;;;;4992468;28;20065;-78
2022/06/23 02:23:31;;;;;;;10.55;7.60;;;23.00;99.90;;;;;;4913229;29;20103;-78
2022/06/23 02:26:23;;;;;;;9.85;6.72;;;23.00;99.90;;;;;;4912931;29;20028;-77
2022/06/23 02:29:15;;;;;;;10.30;6.50;;;23.10;99.90;;;;;;4958565;28;20488;-77
2022/06/23 02:32:04;;;;;;;12.13;6.40;;;23.10;99.90;;;;;;4993033;28;20026;-78
2022/06/23 02:34:37;;;;;;;8.60;6.50;;;23.10;99.90;;;;;;4972521;28;20050;-78
2022/06/23 02:37:44;;;;;;;8.35;7.20;;;23.00;99.90;;;;;;4955091;28;20441;-78
2022/06/23 02:40:22;;;;;;;10.90;7.30;;;23.00;99.90;;;;;;4972710;28;20031;-78
2022/06/23 02:43:03;;;;;;;8.40;7.30;;;22.90;99.90;;;;;;4972505;28;20065;-78
2022/06/23 02:45:32;;;;;;;11.32;7.38;;;22.90;99.90;;;;;;4972466;28;20025;-78
2022/06/23 02:48:16;;;;;;;15.75;7.72;;;22.90;99.90;;;;;;4972594;28;20109;-78
2022/06/23 02:50:53;;;;;;;8.38;6.93;;;22.90;99.90;;;;;;4972390;28;20031;-78
2022/06/23 02:53:41;;;;;;;9.85;6.18;;;22.80;99.90;;;;;;4972362;28;20485;-78
2022/06/23 02:56:44;;;;;;;10.98;7.43;;;22.80;99.90;;;;;;4972097;28;20230;-78
2022/06/23 02:59:17;;;;;;;11.38;6.82;;;22.80;99.90;;;;;;4972280;28;20027;-77
2022/06/23 03:01:46;;;;;;;9.15;6.88;;;22.80;99.90;;;;;;4972253;28;20279;-77
2022/06/23 03:04:26;;;;;;;9.18;6.40;;;22.70;99.90;;;;;;4971981;28;20058;-78
2022/06/23 03:07:03;;;;;;;7.97;7.03;;;22.70;99.90;;;;;;4972358;28;20023;-77
2022/06/23 03:09:40;;;;;;;14.00;7.68;;;22.60;99.90;;;;;;4954780;28;20298;-77
2022/06/23 03:12:14;;;;;;;15.88;7.05;;;22.70;99.90;;;;;;4972157;28;20027;-78
2022/06/23 03:14:56;;;;;;;8.40;6.78;;;22.70;99.90;;;;;;4972278;28;20113;-78
2022/06/23 03:17:42;;;;;;;8.23;6.78;;;22.70;99.90;;;;;;4972189;28;20027;-78
2022/06/23 03:20:14;;;;;;;9.23;6.90;;;22.80;99.90;;;;;;4958257;28;20039;-77
2022/06/23 03:22:45;;;;;;;;;;;22.70;99.90;;;;;;4972499;28;20027;-78
2022/06/23 03:25:14;;;;;;;9.27;7.07;;;22.70;99.90;;;;;;4972066;28;19910;-78
2022/06/23 03:27:53;;;;;;;13.30;7.43;;;22.60;99.90;;;;;;4973989;28;20110;-77
2022/06/23 03:30:22;;;;;;;9.25;7.50;;;22.70;99.90;;;;;;4976059;28;20078;-78
2022/06/23 03:32:56;;;;;;;13.75;7.38;;;22.70;99.90;;;;;;4975936;28;20078;-78
2022/06/23 03:35:34;;;;;;;14.52;7.35;;;22.70;99.90;;;;;;4975828;28;20026;-78
2022/06/23 03:38:09;;;;;;;11.68;7.20;;;22.80;99.90;;;;;;4975757;28;20029;-77
2022/06/23 03:43:31;;;;;;;8.75;6.78;;;22.80;99.90;;;;;;4975848;28;20038;-77
2022/06/23 03:46:18;;;;;;;13.63;7.43;;;22.80;99.90;;;;;;4975504;28;20073;-78
2022/06/23 03:48:53;;;;;;;10.52;6.45;;;22.80;99.90;;;;;;4958316;28;20031;-78
2022/06/23 03:51:24;;;;;;;10.65;6.90;;;22.70;99.90;;;;;;4975576;28;20031;-78
2022/06/23 03:54:08;;;;;;;9.20;6.70;;;22.80;99.90;;;;;;4975309;28;20290;-78
2022/06/23 03:56:46;;;;;;;16.60;8.63;;;22.80;99.90;;;;;;4975239;28;20408;-78
2022/06/23 03:59:16;;;;;;;8.70;7.57;;;22.90;99.90;;;;;;4975538;28;20027;-78
2022/06/23 04:01:56;;;;;;;16.63;7.82;;;22.80;99.90;;;;;;4975272;28;20528;-78
2022/06/23 04:04:47;;;;;;;9.93;7.72;;;22.90;99.90;;;;;;4991989;28;20026;-78
2022/06/23 04:07:28;;;;;;;13.30;7.07;;;23.00;99.90;;;;;;4994661;28;20482;-72
2022/06/23 04:10:09;;;;;;;8.75;6.82;;;23.00;99.90;;;;;;4977149;28;20018;-73
2022/06/23 04:12:42;;;;;;;10.05;7.22;;;23.00;99.90;;;;;;4994706;28;20035;-72
2022/06/23 04:15:17;;;;;;;9.23;7.25;;;23.00;99.90;;;;;;4994468;28;20027;-72
2022/06/23 04:17:51;;;;;;;10.40;7.13;;;23.00;99.90;;;;;;4994439;28;20485;-72
2022/06/23 04:20:29;;;;;;;10.50;7.32;;;23.00;99.90;;;;;;4994228;28;20037;-72
2022/06/23 04:23:01;;;;;;;10.52;7.70;;;23.00;99.90;;;;;;4976946;28;20035;-72
2022/06/23 04:25:48;;;;;;;11.00;8.07;;;23.10;99.90;;;;;;4976994;28;20041;-78
2022/06/23 04:28:36;;;;;;;11.23;7.43;;;23.00;99.90;;;;;;4977064;28;20244;-78
2022/06/23 04:31:05;;;;;;;13.93;7.97;;;23.10;99.90;;;;;;4994864;28;20019;-78
2022/06/23 04:33:38;;;;;;;11.45;7.63;;;23.10;99.90;;;;;;4991669;28;20384;-78
2022/06/23 04:36:04;;;;;;;12.40;7.47;;;23.10;99.90;;;;;;5000453;28;20030;-78
2022/06/23 04:38:36;;;;;;;9.35;7.15;;;23.20;99.90;;;;;;4977457;28;20034;-78
2022/06/23 04:41:10;;;;;;;8.03;7.30;;;23.20;99.90;;;;;;4967444;28;20046;-78
2022/06/23 04:43:48;;;;;;;14.82;7.00;;;23.30;99.90;;;;;;4982388;28;20807;-78
2022/06/23 04:46:26;;;;;;;7.28;6.57;;;23.30;99.90;;;;;;4984908;28;20081;-78
2022/06/23 04:49:00;;;;;;;11.60;7.32;;;23.40;99.90;;;;;;4989116;28;20018;-77
2022/06/23 04:51:38;;;;;;;11.10;6.90;;;23.40;99.90;;;;;;4990540;28;20030;-78
2022/06/23 04:54:21;;;;;;;11.77;6.82;;;23.40;99.90;;;;;;4990220;28;20037;-78
2022/06/23 04:56:55;;;;;;;14.30;7.55;;;23.40;99.90;;;;;;4990580;28;20547;-77
2022/06/23 04:59:49;;;;;;;11.00;6.72;;;23.60;99.90;;;;;;4989983;28;20069;-78
2022/06/23 05:02:34;;;;;;;13.13;7.00;;;23.60;99.90;;;;;;4991569;28;21163;-78
2022/06/23 05:05:13;;;;;;;10.90;6.80;;;23.70;99.90;;;;;;4975748;28;20122;-78
2022/06/23 05:07:42;;;;;;;11.55;6.75;;;23.80;99.90;;;;;;4979180;28;20033;-77
2022/06/23 05:10:17;;;;;;;11.25;7.18;;;23.80;99.90;;;;;;4984065;28;20023;-78
2022/06/23 05:12:48;;;;;;;16.20;7.28;;;23.80;99.90;;;;;;4983303;28;20019;-78
2022/06/23 05:15:27;;;;;;;13.48;6.60;;;23.90;99.90;;;;;;4990345;28;20380;-77
2022/06/23 05:18:15;;;;;;;13.00;7.30;;;24.00;99.90;;;;;;4971284;28;20085;-78
2022/06/23 05:20:44;;;;;;;16.13;8.00;;;24.00;99.90;;;;;;4974130;28;20114;-77
2022/06/23 05:23:17;;;;;;;12.10;7.57;;;24.00;99.90;;;;;;4972163;28;20039;-78
2022/06/23 05:25:46;;;;;;;8.32;7.53;;;24.00;99.90;;;;;;4971879;28;20385;-78
2022/06/23 05:28:28;;;;;;;18.33;8.80;;;24.10;99.90;;;;;;4971845;28;20015;-78
2022/06/23 05:30:58;;;;;;;20.55;8.55;;;24.00;99.90;;;;;;4971908;28;20081;-78
2022/06/23 05:33:32;;;;;;;12.57;8.02;;;24.00;99.90;;;;;;4972011;28;20030;-78
2022/06/23 05:36:19;;;;;;;17.15;8.95;;;24.00;99.90;;;;;;4954630;28;20034;-78
2022/06/23 05:38:47;;;;;;;18.42;9.35;;;24.00;99.90;;;;;;4971856;28;20034;-78
2022/06/23 05:41:28;;;;;;;15.35;9.38;;;24.10;99.90;;;;;;4973628;28;20026;-78
2022/06/23 05:43:56;;;;;;;18.23;8.80;;;24.10;99.90;;;;;;4973487;28;20081;-78
2022/06/23 05:46:24;;;;;;;12.57;9.02;;;24.00;99.90;;;;;;4973377;28;20034;-78
2022/06/23 05:49:15;;;;;;;12.95;9.02;;;24.00;99.90;;;;;;4973304;28;20512;-78
2022/06/23 05:51:44;;;;;;;17.05;8.90;;;24.10;99.90;;;;;;4972448;28;20391;-78
2022/06/23 05:54:14;;;;;;;13.63;9.23;;;24.00;99.90;;;;;;4973776;28;20495;-78
2022/06/23 05:57:12;;;;;;;15.93;9.35;;;24.00;99.90;;;;;;4957728;28;20061;-78
2022/06/23 06:00:01;;;;;;;14.10;9.48;;;24.10;99.90;;;;;;4969113;28;20038;-77
2022/06/23 06:02:37;;;;;;;15.10;9.40;;;24.20;99.90;;;;;;4955807;28;20035;-78
2022/06/23 06:05:14;;;;;;;19.35;9.45;;;24.10;99.90;;;;;;4972846;28;20485;-78
2022/06/23 06:07:42;;;;;;;21.45;9.93;;;24.20;99.90;;;;;;4973029;28;20061;-77
2022/06/23 06:10:15;;;;;;;11.93;9.45;;;24.30;99.90;;;;;;4973116;28;20049;-78
2022/06/23 06:12:43;;;;;;;13.50;9.15;;;24.40;99.90;;;;;;4955623;28;20018;-78
2022/06/23 06:15:35;;;;;;;16.73;9.63;;;24.40;99.90;;;;;;4972854;28;20031;-78
2022/06/23 06:18:20;;;;;;;17.05;8.23;;;24.50;99.90;;;;;;4972802;28;20030;-77
2022/06/23 06:20:46;;;;;;;13.35;8.93;;;24.50;99.90;;;;;;4972727;28;20035;-78
2022/06/23 06:23:41;;;;;;;16.83;9.63;;;24.50;99.90;;;;;;4972700;28;20030;-78
2022/06/23 06:26:11;;;;;;;14.43;9.57;;;24.60;99.90;;;;;;4942621;28;20452;-77
2022/06/23 06:28:37;;;;;;;18.63;9.27;;;24.60;99.90;;;;;;4992054;28;20030;-78
2022/06/23 06:31:05;;;;;;;14.23;8.65;;;24.60;99.90;;;;;;4991964;28;20046;-78
2022/06/23 06:34:02;;;;;;;16.13;9.73;;;24.70;99.90;;;;;;4991980;28;20022;-77
2022/06/23 06:36:49;;;;;;;14.90;9.60;;;24.80;99.90;;;;;;4985842;28;20062;-78
2022/06/23 06:39:25;;;;;;;13.10;9.25;;;24.80;99.90;;;;;;4991884;28;20068;-78
2022/06/23 06:42:17;;;;;;;13.73;10.18;;;24.90;99.90;;;;;;4991937;28;20064;-78
2022/06/23 06:44:48;;;;;;;13.93;9.45;;;24.90;99.90;;;;;;4974410;28;20085;-78
2022/06/23 06:47:21;;;;;;;12.35;9.85;;;25.00;99.90;;;;;;4975807;28;20106;-78
2022/06/23 06:49:47;;;;;;;15.02;9.40;;;25.00;99.90;;;;;;4993418;28;20109;-78
2022/06/23 06:52:14;;;;;;;17.15;9.70;;;25.00;99.90;;;;;;4993471;28;20026;-77
2022/06/23 06:54:49;;;;;;;15.57;10.05;;;25.00;99.90;;;;;;4992664;28;20058;-78
2022/06/23 06:57:32;;;;;;;14.82;9.65;;;25.10;99.90;;;;;;4992895;28;20123;-78
2022/06/23 07:00:07;;;;;;;20.73;9.00;;;25.20;99.90;;;;;;4992841;28;20038;-78
2022/06/23 07:02:48;;;;;;;16.75;9.05;;;25.20;99.90;;;;;;4992911;28;20026;-78
2022/06/23 07:05:43;;;;;;;14.45;8.82;;;25.20;99.90;;;;;;4992804;28;20030;-78
2022/06/23 07:08:15;;;;;;;14.38;10.13;;;25.30;99.90;;;;;;4975136;28;20026;-78
2022/06/23 07:10:49;;;;;;;13.68;9.45;;;25.30;99.90;;;;;;4993055;28;20026;-78
2022/06/23 07:13:29;;;;;;;15.40;9.50;;;25.30;99.90;;;;;;4993129;28;20022;-78
2022/06/23 07:16:05;;;;;;;15.65;8.35;;;25.30;99.90;;;;;;4992911;28;20023;-78
2022/06/23 07:18:42;;;;;;;15.80;9.27;;;25.40;99.90;;;;;;4992932;28;20030;-78
2022/06/23 07:21:20;;;;;;;11.30;8.35;;;25.40;99.90;;;;;;4992830;28;20022;-78
2022/06/23 07:23:52;;;;;;;18.13;9.73;;;25.60;99.90;;;;;;4992697;28;20029;-79
2022/06/23 07:26:46;;;;;;;10.63;8.63;;;25.60;99.90;;;;;;4992356;28;20085;-78
2022/06/23 07:29:33;;;;;;;12.23;8.35;;;25.60;99.90;;;;;;4974487;28;20077;-78
2022/06/23 07:32:18;;;;;;;11.55;9.20;;;25.70;99.90;;;;;;4991983;28;20109;-78
2022/06/23 07:34:57;;;;;;;11.93;9.02;;;25.80;99.90;;;;;;4991419;28;20047;-78
2022/06/23 07:37:32;;;;;;;19.63;8.32;;;25.80;99.90;;;;;;4991799;28;20101;-79
2022/06/23 07:40:05;;;;;;;16.85;7.63;;;25.80;99.90;;;;;;4991582;28;20074;-78
2022/06/23 07:42:49;;;;;;;20.05;8.02;;;25.80;99.90;;;;;;4991639;28;20026;-78
2022/06/23 07:45:29;;;;;;;14.40;7.93;;;25.90;99.90;;;;;;4991249;28;20126;-78
2022/06/23 07:47:58;;;;;;;12.82;8.60;;;26.00;99.90;;;;;;4961229;28;20034;-78
2022/06/23 07:50:24;;;;;;;15.05;9.32;;;26.10;99.90;;;;;;4980662;28;20023;-77
2022/06/23 07:52:50;;;;;;;18.67;8.90;;;26.10;99.90;;;;;;4980676;28;20027;-78
2022/06/23 07:55:29;;;;;;;16.38;8.20;;;26.10;99.90;;;;;;4978135;28;20090;-78
2022/06/23 07:57:55;;;;;;;16.42;8.68;;;26.10;99.90;;;;;;4978848;28;20034;-78
2022/06/23 08:00:22;;;;;;;10.43;8.52;;;26.20;99.90;;;;;;4980013;28;20019;-78
2022/06/23 08:03:03;;;;;;;13.45;8.50;;;26.30;99.90;;;;;;4980639;28;20031;-78
2022/06/23 08:05:36;;;;;;;14.75;9.07;;;26.40;99.90;;;;;;4979676;28;20111;-78
2022/06/23 08:08:04;;;;;;;16.23;10.18;;;26.50;99.90;;;;;;4979473;28;20699;-78
2022/06/23 08:10:32;;;;;;;14.75;9.45;;;26.50;99.90;;;;;;4961101;28;20809;-78
2022/06/23 08:13:20;;;;;;;16.60;9.20;;;26.50;99.90;;;;;;4978220;28;20019;-78
2022/06/23 08:19:06;;;;;;;12.60;7.88;;;26.70;99.90;;;;;;4983649;28;20077;-78
2022/06/23 08:21:43;;;;;;;10.00;7.53;;;26.60;99.40;;;;;;4982733;28;20022;-77
2022/06/23 08:24:18;;;;;;;12.90;8.68;;;26.70;99.40;;;;;;4985764;28;20396;-78
2022/06/23 08:26:48;;;;;;;18.60;9.02;;;26.70;99.80;;;;;;4964772;28;20393;-78
2022/06/23 08:29:17;;;;;;;18.85;9.38;;;26.80;99.90;;;;;;4981619;28;20011;-78
2022/06/23 08:31:43;;;;;;;19.65;9.10;;;26.90;99.70;;;;;;4983131;28;20022;-78
2022/06/23 08:34:10;;;;;;;14.73;8.07;;;26.90;99.40;;;;;;4982762;28;20103;-78
2022/06/23 08:36:49;;;;;;;17.75;9.55;;;27.00;99.80;;;;;;4980916;28;20026;-78
2022/06/23 08:39:37;;;;;;;14.77;9.07;;;27.10;99.90;;;;;;4963631;28;20026;-78
2022/06/23 08:42:15;;;;;;;14.85;8.77;;;27.20;99.90;;;;;;4969644;28;20023;-73
2022/06/23 08:45:09;;;;;;;16.02;8.85;;;27.10;99.70;;;;;;4951277;28;20023;-72
2022/06/23 08:48:14;;;;;;;24.58;10.30;;;27.20;99.90;;;;;;4957458;28;20054;-73
2022/06/23 08:51:02;;;;;;;17.23;9.05;;;27.20;99.10;;;;;;4969163;28;20038;-73
2022/06/23 08:53:33;;;;;;;14.98;9.02;;;27.30;99.00;;;;;;4988437;28;20504;-73
2022/06/23 08:56:07;;;;;;;13.30;8.55;;;27.30;98.70;;;;;;4989405;28;20050;-72
2022/06/23 08:58:39;;;;;;;24.20;9.85;;;27.40;99.00;;;;;;4989745;28;20030;-72
2022/06/23 09:01:40;;;;;;;21.10;11.40;;;27.40;98.90;;;;;;4989488;28;20023;-72
2022/06/23 09:04:27;;;;;;;18.88;10.75;;;27.40;97.80;;;;;;4967367;28;20122;-73
2022/06/23 09:07:06;;;;;;;17.75;10.85;;;27.40;98.70;;;;;;4973020;28;20113;-73
2022/06/23 09:09:45;;;;;;;17.63;10.27;;;27.50;99.70;;;;;;4990158;28;20164;-72
2022/06/23 09:12:33;;;;;;;15.18;8.80;;;27.60;99.50;;;;;;4991244;28;20463;-72
2022/06/23 09:15:16;;;;;;;20.55;11.43;;;27.70;99.90;;;;;;4990994;28;20030;-72
2022/06/23 09:18:05;;;;;;;17.92;9.60;;;27.70;99.90;;;;;;4973260;28;20523;-73
2022/06/23 09:21:04;;;;;;;13.43;9.07;;;27.80;99.90;;;;;;4991117;28;20045;-73
2022/06/23 09:23:52;;;;;;;19.17;10.68;;;27.80;99.00;;;;;;4990422;28;20053;-73
2022/06/23 09:26:31;;;;;;;19.58;10.57;;;27.90;98.60;;;;;;4990382;28;20504;-72
2022/06/23 09:29:08;;;;;;;15.02;9.05;;;28.00;97.80;;;;;;4990385;28;20089;-73
2022/06/23 09:32:00;;;;;;;24.08;9.80;;;28.00;98.50;;;;;;4990718;28;20194;-72
2022/06/23 09:34:55;;;;;;;26.40;12.63;;;28.10;99.00;;;;;;4990943;28;20058;-72
2022/06/23 09:37:45;;;;;;;22.20;13.18;;;28.10;98.40;;;;;;4994997;28;20777;-73
2022/06/23 09:40:42;;;;;;;22.45;11.98;;;28.30;99.70;;;;;;4984463;28;20026;-73
2022/06/23 09:43:11;;;;;;;16.08;9.80;;;28.30;99.60;;;;;;4992278;28;20423;-73
2022/06/23 09:46:13;;;;;;;14.23;8.65;;;28.40;99.50;;;;;;4990477;28;20041;-72
2022/06/23 09:49:03;;;;;;;26.25;12.73;;;28.50;99.60;;;;;;4963957;28;20121;-72
2022/06/23 09:51:40;;;;;;;17.77;12.25;;;28.60;98.90;;;;;;4992507;28;20045;-72
2022/06/23 09:54:43;;;;;;;17.83;10.43;;;28.60;99.00;;;;;;4991740;28;20574;-73
2022/06/23 09:57:12;;;;;;;18.88;7.35;;;28.80;99.50;;;;;;5001233;28;20054;-73
2022/06/23 09:59:49;;;;;;;21.58;7.55;;;28.90;97.00;;;;;;4999565;28;20100;-73
2022/06/23 10:02:46;;;;;;;19.02;6.97;;;28.90;95.70;;;;;;4992597;28;20029;-73
2022/06/23 10:05:40;;;;;;;13.05;6.70;;;29.00;95.00;;;;;;4999020;28;20037;-73
2022/06/23 10:08:23;;;;;;;11.73;6.65;;;29.00;94.40;;;;;;5009768;28;20029;-72
2022/06/23 10:11:00;;;;;;;21.80;7.20;;;29.00;94.30;;;;;;4992115;28;20038;-73
2022/06/23 10:13:44;;;;;;;13.77;6.38;;;29.00;93.80;;;;;;5009866;28;20108;-73
2022/06/23 10:16:18;;;;;;;10.52;6.25;;;29.00;94.40;;;;;;4991203;28;20136;-73
2022/06/23 10:19:35;;;;;;;14.98;6.22;;;29.00;93.10;;;;;;4992678;28;20042;-74
2022/06/23 10:22:19;;;;;;;10.35;5.38;;;29.20;93.30;;;;;;4959455;28;20117;-72
2022/06/23 10:24:54;;;;;;;16.95;6.25;;;29.30;93.60;;;;;;4995625;28;20026;-73
2022/06/23 10:27:42;;;;;;;15.80;7.47;;;29.30;92.40;;;;;;5002285;28;20473;-72
2022/06/23 10:30:26;;;;;;;14.50;6.75;;;29.40;93.00;;;;;;4993303;28;20401;-73
2022/06/23 10:32:57;;;;;;;19.45;7.05;;;29.50;92.50;;;;;;4992845;28;20030;-74
2022/06/23 10:35:51;;;;;;;13.88;6.53;;;29.60;92.40;;;;;;4992313;28;20134;-73
2022/06/23 10:38:23;;;;;;;16.38;6.93;;;29.70;91.90;;;;;;4974287;28;20034;-73
2022/06/23 10:40:58;;;;;;;20.05;6.40;;;29.70;91.30;;;;;;4975010;28;20045;-72
2022/06/23 10:43:55;;;;;;;19.05;7.80;;;29.80;91.10;;;;;;4992164;28;20037;-72
2022/06/23 10:46:28;;;;;;;12.98;6.68;;;29.70;91.70;;;;;;4992186;28;20025;-72
2022/06/23 10:48:59;;;;;;;19.48;6.78;;;29.80;91.80;;;;;;4973103;28;20439;-79
2022/06/23 10:51:25;;;;;;;;;;;30.10;91.80;;;;;;4990969;28;20109;-79
2022/06/23 10:54:09;;;;;;;19.25;7.78;;;30.20;91.00;;;;;;4990714;28;20026;-77
2022/06/23 10:57:13;;;;;;;19.15;8.65;;;30.20;90.50;;;;;;4972926;28;20574;-80
2022/06/23 10:59:39;;;;;;;16.27;8.75;;;30.30;90.90;;;;;;4990581;28;20022;-79
2022/06/23 11:02:21;;;;;;;18.23;9.00;;;30.40;90.70;;;;;;4990225;28;20069;-80
2022/06/23 11:05:02;;;;;;;21.20;7.93;;;30.40;91.10;;;;;;4990850;28;20105;-79
2022/06/23 11:08:05;;;;;;;17.42;8.57;;;30.50;91.00;;;;;;4991221;28;20785;-79
2022/06/23 11:11:02;;;;;;;20.42;9.15;;;30.60;90.90;;;;;;4990163;28;20045;-73
2022/06/23 11:13:39;;;;;;;20.40;8.25;;;30.80;90.60;;;;;;4989949;28;20030;-72
2022/06/23 11:16:19;;;;;;;18.55;8.88;;;30.70;90.30;;;;;;4990902;28;20057;-79
2022/06/23 11:18:57;;;;;;;21.92;8.90;;;30.70;90.70;;;;;;4990305;28;20025;-80
2022/06/23 11:21:47;;;;;;;13.35;6.93;;;30.80;89.60;;;;;;4990778;28;20101;-77
2022/06/23 11:24:20;;;;;;;17.05;7.85;;;30.80;89.30;;;;;;4990539;28;20058;-79
2022/06/23 11:26:59;;;;;;;20.67;7.80;;;30.80;88.70;;;;;;4990969;28;20033;-77
2022/06/23 11:29:33;;;;;;;23.42;7.38;;;30.80;87.30;;;;;;4990768;28;20033;-77
2022/06/23 11:32:40;;;;;;;19.83;7.05;;;30.80;87.40;;;;;;4990827;28;20048;-80
2022/06/23 11:35:50;;;;;;;30.60;6.63;;;30.80;87.50;;;;;;4959558;28;20042;-78
2022/06/23 11:38:27;;;;;;;21.17;7.07;;;30.80;87.20;;;;;;4957181;28;20050;-78
2022/06/23 11:41:35;;;;;;;15.60;6.40;;;31.00;86.70;;;;;;4990258;28;20081;-79
2022/06/23 11:44:25;;;;;;;26.45;7.88;;;31.00;87.70;;;;;;4981487;28;20037;-80
2022/06/23 11:47:12;;;;;;;28.48;7.50;;;31.20;86.20;;;;;;4991133;28;20033;-77
2022/06/23 11:49:47;;;;;;;25.40;7.50;;;31.40;85.70;;;;;;4995002;28;20077;-80
2022/06/23 11:52:25;;;;;;;32.90;7.65;;;31.50;84.70;;;;;;4996880;28;20023;-80
2022/06/23 11:55:15;;;;;;;22.83;7.13;;;31.60;84.30;;;;;;4996624;28;20026;-79
2022/06/23 11:58:13;;;;;;;22.58;8.02;;;31.60;83.80;;;;;;4996872;28;20556;-79
2022/06/23 12:00:58;;;;;;;24.92;7.88;;;31.80;83.10;;;;;;4996528;28;20034;-79
2022/06/23 12:03:47;;;;;;;21.10;7.43;;;31.90;83.40;;;;;;4994703;28;20449;-79
2022/06/23 12:06:51;;;;;;;18.48;8.68;;;32.00;82.40;;;;;;4974262;28;20027;-79
2022/06/23 12:09:23;;;;;;;22.25;7.88;;;32.00;82.50;;;;;;4974205;28;20034;-80
2022/06/23 12:11:49;;;;;;;18.75;6.85;;;32.00;82.70;;;;;;4974258;28;20067;-79
2022/06/23 12:14:16;;;;;;;18.95;6.85;;;32.20;81.30;;;;;;4974996;28;20109;-79
2022/06/23 12:16:59;;;;;;;28.50;7.38;;;32.20;80.50;;;;;;4974052;28;20591;-79
2022/06/23 12:19:53;;;;;;;22.77;7.60;;;32.40;82.10;;;;;;4974353;28;20042;-79
2022/06/23 12:22:41;;;;;;;21.15;7.00;;;32.40;77.60;;;;;;4974103;28;20026;-79
2022/06/23 12:25:19;;;;;;;21.95;7.40;;;32.50;78.70;;;;;;4973542;28;20078;-79
2022/06/23 12:27:56;;;;;;;11.07;6.38;;;32.60;77.90;;;;;;4973757;28;20053;-79
2022/06/23 12:30:23;;;;;;;23.25;7.40;;;32.80;78.30;;;;;;4991945;28;20022;-79
2022/06/23 12:33:04;;;;;;;22.83;6.43;;;32.90;74.40;;;;;;4993595;28;20023;-79
2022/06/23 12:35:57;;;;;;;20.27;6.73;;;32.80;74.70;;;;;;4993446;28;20104;-79
2022/06/23 12:38:34;;;;;;;24.13;6.90;;;32.40;74.90;;;;;;4982341;28;20487;-79
2022/06/23 12:41:29;;;;;;;24.00;7.43;;;32.20;75.60;;;;;;4975766;28;20054;-79
2022/06/23 12:44:27;;;;;;;17.27;6.45;;;32.20;76.40;;;;;;4976578;28;20105;-80
2022/06/23 12:47:24;;;;;;;31.10;8.13;;;32.00;78.20;;;;;;4976520;28;20656;-79
2022/06/23 12:50:12;;;;;;;23.48;6.90;;;32.00;77.50;;;;;;4977068;28;20031;-79
2022/06/23 12:52:46;;;;;;;17.83;7.13;;;32.00;77.10;;;;;;4974226;28;20039;-79
2022/06/23 12:55:12;;;;;;;26.95;5.88;;;31.80;77.20;;;;;;4974846;28;20051;-80
2022/06/23 12:57:55;;;;;;;28.50;6.63;;;31.70;77.00;;;;;;4992823;28;20542;-79
2022/06/23 13:00:45;;;;;;;24.70;6.88;;;31.70;77.10;;;;;;4992641;28;20115;-79
2022/06/23 13:03:43;;;;;;;28.00;6.80;;;31.80;78.00;;;;;;4982207;28;20030;-78
2022/06/23 13:06:13;;;;;;;16.92;6.32;;;31.90;77.50;;;;;;4975582;28;20058;-77
2022/06/23 13:08:50;;;;;;;16.63;6.65;;;31.80;79.00;;;;;;4976000;28;20061;-77
2022/06/23 13:11:27;;;;;;;24.98;7.50;;;31.70;79.70;;;;;;4975363;28;20019;-77
2022/06/23 13:14:07;;;;;;;19.63;7.13;;;31.40;79.10;;;;;;4976251;28;20457;-77
2022/06/23 13:17:03;;;;;;;26.48;7.70;;;31.10;81.90;;;;;;4975864;28;20023;-77
2022/06/23 13:19:45;;;;;;;23.15;7.85;;;30.80;82.80;;;;;;4975881;28;20023;-77
2022/06/23 13:22:11;;;;;;;19.98;7.03;;;30.60;85.00;;;;;;4975766;28;20102;-77
2022/06/23 13:24:42;;;;;;;25.58;6.75;;;30.50;84.80;;;;;;4975601;28;20457;-77
2022/06/23 13:27:19;;;;;;;26.33;6.93;;;30.30;85.60;;;;;;4975697;28;20636;-77
2022/06/23 13:29:56;;;;;;;22.77;7.40;;;30.30;88.10;;;;;;4975378;28;20026;-77
2022/06/23 13:33:01;;;;;;;23.60;8.65;;;30.20;91.20;;;;;;4983317;28;20027;-76
2022/06/23 13:35:35;;;;;;;19.58;6.85;;;30.20;92.70;;;;;;4984719;28;20271;-77
2022/06/23 13:38:27;;;;;;;22.73;7.32;;;30.20;92.40;;;;;;4975162;28;20044;-77
2022/06/23 13:41:06;;;;;;;23.17;7.50;;;30.30;92.60;;;;;;4997346;28;20026;-77
2022/06/23 13:43:47;;;;;;;19.05;7.57;;;30.30;91.20;;;;;;5013298;28;20030;-77
2022/06/23 13:46:16;;;;;;;19.00;7.47;;;30.30;90.30;;;;;;5012926;28;20049;-77
2022/06/23 13:48:55;;;;;;;22.35;7.47;;;30.20;90.90;;;;;;5013314;28;20075;-77